sensor_id;sensor_type;location;lat;lon;timestamp;P1;durP1;ratioP1;P2;durP2;ratioP2
31004;SDS011;17676;52.254;4.490;2024-03-17T00:01:05;7.95;;;2.67;;
31004;SDS011;17676;52.254;4.490;2024-03-17T00:03:31;10.20;;;3.45;;
31004;SDS011;17676;52.254;4.490;2024-03-17T00:06:00;5.95;;;2.70;;
31004;SDS011;17676;52.254;4.490;2024-03-17T00:08:27;6.65;;;2.45;;
31004;SDS011;17676;52.254;4.490;2024-03-17T00:10:53;6.55;;;2.10;;
31004;SDS011;17676;52.254;4.490;2024-03-17T00:13:22;7.10;;;2.38;;
31004;SDS011;17676;52.254;4.490;2024-03-17T00:15:49;8.20;;;2.40;;
31004;SDS011;17676;52.254;4.490;2024-03-17T00:18:15;5.50;;;2.15;;
31004;SDS011;17676;52.254;4.490;2024-03-17T00:20:41;6.97;;;2.53;;
31004;SDS011;17676;52.254;4.490;2024-03-17T00:23:08;6.90;;;2.65;;
31004;SDS011;17676;52.254;4.490;2024-03-17T00:25:37;6.20;;;2.20;;
31004;SDS011;17676;52.254;4.490;2024-03-17T00:28:03;6.13;;;2.42;;
31004;SDS011;17676;52.254;4.490;2024-03-17T00:30:29;6.28;;;1.67;;
31004;SDS011;17676;52.254;4.490;2024-03-17T00:32:56;4.82;;;1.88;;
31004;SDS011;17676;52.254;4.490;2024-03-17T00:35:23;6.72;;;1.70;;
31004;SDS011;17676;52.254;4.490;2024-03-17T00:37:49;7.40;;;2.00;;
31004;SDS011;17676;52.254;4.490;2024-03-17T00:40:19;3.60;;;1.50;;
31004;SDS011;17676;52.254;4.490;2024-03-17T00:42:45;4.90;;;1.83;;
31004;SDS011;17676;52.254;4.490;2024-03-17T00:45:11;6.35;;;1.73;;
31004;SDS011;17676;52.254;4.490;2024-03-17T00:47:37;6.38;;;1.85;;
31004;SDS011;17676;52.254;4.490;2024-03-17T00:50:03;7.82;;;1.67;;
31004;SDS011;17676;52.254;4.490;2024-03-17T00:52:31;9.23;;;1.73;;
31004;SDS011;17676;52.254;4.490;2024-03-17T00:54:57;4.90;;;1.30;;
31004;SDS011;17676;52.254;4.490;2024-03-17T00:57:24;9.05;;;1.67;;
31004;SDS011;17676;52.254;4.490;2024-03-17T00:59:50;5.78;;;2.00;;
31004;SDS011;17676;52.254;4.490;2024-03-17T01:02:17;15.45;;;1.92;;
31004;SDS011;17676;52.254;4.490;2024-03-17T01:04:43;7.28;;;2.08;;
31004;SDS011;17676;52.254;4.490;2024-03-17T01:07:09;8.25;;;1.88;;
31004;SDS011;17676;52.254;4.490;2024-03-17T01:09:36;9.50;;;2.00;;
31004;SDS011;17676;52.254;4.490;2024-03-17T01:12:02;8.52;;;1.58;;
31004;SDS011;17676;52.254;4.490;2024-03-17T01:14:28;5.57;;;1.92;;
31004;SDS011;17676;52.254;4.490;2024-03-17T01:16:55;6.28;;;1.95;;
31004;SDS011;17676;52.254;4.490;2024-03-17T01:19:22;10.70;;;1.40;;
31004;SDS011;17676;52.254;4.490;2024-03-17T01:21:48;5.07;;;1.65;;
31004;SDS011;17676;52.254;4.490;2024-03-17T01:24:14;6.15;;;2.08;;
31004;SDS011;17676;52.254;4.490;2024-03-17T01:26:40;5.45;;;2.17;;
31004;SDS011;17676;52.254;4.490;2024-03-17T01:29:05;6.35;;;1.52;;
31004;SDS011;17676;52.254;4.490;2024-03-17T01:31:31;5.57;;;2.05;;
31004;SDS011;17676;52.254;4.490;2024-03-17T01:33:57;4.97;;;2.15;;
31004;SDS011;17676;52.254;4.490;2024-03-17T01:36:22;6.25;;;2.35;;
31004;SDS011;17676;52.254;4.490;2024-03-17T01:38:49;9.02;;;2.47;;
31004;SDS011;17676;52.254;4.490;2024-03-17T01:41:15;3.90;;;1.95;;
31004;SDS011;17676;52.254;4.490;2024-03-17T01:43:41;6.68;;;2.28;;
31004;SDS011;17676;52.254;4.490;2024-03-17T01:46:08;6.50;;;2.63;;
31004;SDS011;17676;52.254;4.490;2024-03-17T01:48:38;7.35;;;2.65;;
31004;SDS011;17676;52.254;4.490;2024-03-17T01:51:04;5.13;;;2.50;;
31004;SDS011;17676;52.254;4.490;2024-03-17T01:53:30;7.10;;;2.80;;
31004;SDS011;17676;52.254;4.490;2024-03-17T01:55:56;8.80;;;3.78;;
31004;SDS011;17676;52.254;4.490;2024-03-17T01:58:24;6.25;;;2.80;;
31004;SDS011;17676;52.254;4.490;2024-03-17T02:00:50;7.15;;;3.33;;
31004;SDS011;17676;52.254;4.490;2024-03-17T02:03:19;5.93;;;2.88;;
31004;SDS011;17676;52.254;4.490;2024-03-17T02:05:45;6.47;;;3.35;;
31004;SDS011;17676;52.254;4.490;2024-03-17T02:08:11;8.23;;;3.90;;
31004;SDS011;17676;52.254;4.490;2024-03-17T02:10:37;6.38;;;3.75;;
31004;SDS011;17676;52.254;4.490;2024-03-17T02:13:03;5.50;;;2.97;;
31004;SDS011;17676;52.254;4.490;2024-03-17T02:15:30;9.77;;;3.75;;
31004;SDS011;17676;52.254;4.490;2024-03-17T02:17:56;7.43;;;3.75;;
31004;SDS011;17676;52.254;4.490;2024-03-17T02:20:21;8.07;;;4.07;;
31004;SDS011;17676;52.254;4.490;2024-03-17T02:23:10;7.38;;;3.78;;
31004;SDS011;17676;52.254;4.490;2024-03-17T02:25:37;7.90;;;3.33;;
31004;SDS011;17676;52.254;4.490;2024-03-17T02:28:03;8.52;;;4.88;;
31004;SDS011;17676;52.254;4.490;2024-03-17T02:30:30;8.40;;;3.72;;
31004;SDS011;17676;52.254;4.490;2024-03-17T02:32:56;9.13;;;4.28;;
31004;SDS011;17676;52.254;4.490;2024-03-17T02:35:22;10.65;;;5.03;;
31004;SDS011;17676;52.254;4.490;2024-03-17T02:37:49;6.30;;;4.22;;
31004;SDS011;17676;52.254;4.490;2024-03-17T02:40:15;8.60;;;4.18;;
31004;SDS011;17676;52.254;4.490;2024-03-17T02:42:42;7.22;;;4.55;;
31004;SDS011;17676;52.254;4.490;2024-03-17T02:45:10;4.80;;;3.88;;
31004;SDS011;17676;52.254;4.490;2024-03-17T02:47:39;7.55;;;4.45;;
31004;SDS011;17676;52.254;4.490;2024-03-17T02:50:08;11.85;;;5.43;;
31004;SDS011;17676;52.254;4.490;2024-03-17T02:52:36;8.82;;;4.75;;
31004;SDS011;17676;52.254;4.490;2024-03-17T02:55:02;11.07;;;5.10;;
31004;SDS011;17676;52.254;4.490;2024-03-17T02:57:28;7.90;;;5.05;;
31004;SDS011;17676;52.254;4.490;2024-03-17T02:59:58;9.55;;;4.53;;
31004;SDS011;17676;52.254;4.490;2024-03-17T03:02:24;6.35;;;4.55;;
31004;SDS011;17676;52.254;4.490;2024-03-17T03:04:49;8.88;;;5.30;;
31004;SDS011;17676;52.254;4.490;2024-03-17T03:07:15;9.43;;;4.68;;
31004;SDS011;17676;52.254;4.490;2024-03-17T03:09:41;10.00;;;5.38;;
31004;SDS011;17676;52.254;4.490;2024-03-17T03:12:07;6.18;;;5.13;;
31004;SDS011;17676;52.254;4.490;2024-03-17T03:14:33;7.72;;;5.10;;
31004;SDS011;17676;52.254;4.490;2024-03-17T03:16:59;7.57;;;4.88;;
31004;SDS011;17676;52.254;4.490;2024-03-17T03:19:28;7.00;;;5.25;;
31004;SDS011;17676;52.254;4.490;2024-03-17T03:21:55;7.13;;;5.35;;
31004;SDS011;17676;52.254;4.490;2024-03-17T03:24:21;6.55;;;5.20;;
31004;SDS011;17676;52.254;4.490;2024-03-17T03:26:47;9.40;;;5.80;;
31004;SDS011;17676;52.254;4.490;2024-03-17T03:29:13;8.60;;;5.38;;
31004;SDS011;17676;52.254;4.490;2024-03-17T03:31:42;10.52;;;6.53;;
31004;SDS011;17676;52.254;4.490;2024-03-17T03:34:08;7.78;;;6.43;;
31004;SDS011;17676;52.254;4.490;2024-03-17T03:36:34;8.40;;;5.75;;
31004;SDS011;17676;52.254;4.490;2024-03-17T03:39:01;10.45;;;6.28;;
31004;SDS011;17676;52.254;4.490;2024-03-17T03:41:29;7.78;;;5.80;;
31004;SDS011;17676;52.254;4.490;2024-03-17T03:43:56;8.85;;;6.63;;
31004;SDS011;17676;52.254;4.490;2024-03-17T03:46:21;8.10;;;6.68;;
31004;SDS011;17676;52.254;4.490;2024-03-17T03:48:47;6.65;;;5.90;;
31004;SDS011;17676;52.254;4.490;2024-03-17T03:51:13;10.93;;;6.63;;
31004;SDS011;17676;52.254;4.490;2024-03-17T03:53:39;6.22;;;5.63;;
31004;SDS011;17676;52.254;4.490;2024-03-17T03:56:05;9.70;;;6.35;;
31004;SDS011;17676;52.254;4.490;2024-03-17T03:58:33;10.23;;;6.00;;
31004;SDS011;17676;52.254;4.490;2024-03-17T04:01:03;8.95;;;5.25;;
31004;SDS011;17676;52.254;4.490;2024-03-17T04:03:30;6.18;;;5.55;;
31004;SDS011;17676;52.254;4.490;2024-03-17T04:06:03;7.78;;;6.15;;
31004;SDS011;17676;52.254;4.490;2024-03-17T04:08:30;6.80;;;5.70;;
31004;SDS011;17676;52.254;4.490;2024-03-17T04:10:57;8.25;;;6.68;;
31004;SDS011;17676;52.254;4.490;2024-03-17T04:13:23;6.85;;;6.18;;
31004;SDS011;17676;52.254;4.490;2024-03-17T04:15:49;8.65;;;6.57;;
31004;SDS011;17676;52.254;4.490;2024-03-17T04:18:15;10.00;;;6.20;;
31004;SDS011;17676;52.254;4.490;2024-03-17T04:20:42;8.30;;;6.68;;
31004;SDS011;17676;52.254;4.490;2024-03-17T04:23:08;7.57;;;5.95;;
31004;SDS011;17676;52.254;4.490;2024-03-17T04:25:34;11.27;;;6.63;;
31004;SDS011;17676;52.254;4.490;2024-03-17T04:28:00;8.80;;;6.78;;
31004;SDS011;17676;52.254;4.490;2024-03-17T04:30:25;9.20;;;6.20;;
31004;SDS011;17676;52.254;4.490;2024-03-17T04:32:51;7.38;;;6.68;;
31004;SDS011;17676;52.254;4.490;2024-03-17T04:35:17;7.45;;;6.50;;
31004;SDS011;17676;52.254;4.490;2024-03-17T04:37:43;7.22;;;6.03;;
31004;SDS011;17676;52.254;4.490;2024-03-17T04:40:08;8.70;;;6.93;;
31004;SDS011;17676;52.254;4.490;2024-03-17T04:42:35;8.88;;;6.50;;
31004;SDS011;17676;52.254;4.490;2024-03-17T04:45:00;7.65;;;6.85;;
31004;SDS011;17676;52.254;4.490;2024-03-17T04:47:26;7.47;;;6.40;;
31004;SDS011;17676;52.254;4.490;2024-03-17T04:49:52;9.20;;;6.57;;
31004;SDS011;17676;52.254;4.490;2024-03-17T04:52:18;7.97;;;6.65;;
31004;SDS011;17676;52.254;4.490;2024-03-17T04:54:43;8.13;;;7.00;;
31004;SDS011;17676;52.254;4.490;2024-03-17T04:57:09;9.20;;;6.80;;
31004;SDS011;17676;52.254;4.490;2024-03-17T04:59:35;7.68;;;7.00;;
31004;SDS011;17676;52.254;4.490;2024-03-17T05:02:01;9.45;;;6.75;;
31004;SDS011;17676;52.254;4.490;2024-03-17T05:04:30;8.80;;;6.88;;
31004;SDS011;17676;52.254;4.490;2024-03-17T05:06:56;7.78;;;6.60;;
31004;SDS011;17676;52.254;4.490;2024-03-17T05:09:22;9.07;;;6.85;;
31004;SDS011;17676;52.254;4.490;2024-03-17T05:11:49;9.90;;;7.15;;
31004;SDS011;17676;52.254;4.490;2024-03-17T05:14:17;9.88;;;7.53;;
31004;SDS011;17676;52.254;4.490;2024-03-17T05:16:44;9.60;;;7.18;;
31004;SDS011;17676;52.254;4.490;2024-03-17T05:19:10;8.30;;;7.50;;
31004;SDS011;17676;52.254;4.490;2024-03-17T05:21:36;8.85;;;7.93;;
31004;SDS011;17676;52.254;4.490;2024-03-17T05:24:02;10.70;;;7.72;;
31004;SDS011;17676;52.254;4.490;2024-03-17T05:26:28;9.95;;;7.38;;
31004;SDS011;17676;52.254;4.490;2024-03-17T05:28:53;8.85;;;7.57;;
31004;SDS011;17676;52.254;4.490;2024-03-17T05:31:19;8.55;;;7.60;;
31004;SDS011;17676;52.254;4.490;2024-03-17T05:33:47;8.57;;;7.60;;
31004;SDS011;17676;52.254;4.490;2024-03-17T05:36:13;11.73;;;8.60;;
31004;SDS011;17676;52.254;4.490;2024-03-17T05:38:39;11.50;;;8.13;;
31004;SDS011;17676;52.254;4.490;2024-03-17T05:41:06;10.10;;;7.82;;
31004;SDS011;17676;52.254;4.490;2024-03-17T05:43:33;10.07;;;8.50;;
31004;SDS011;17676;52.254;4.490;2024-03-17T05:46:06;11.40;;;8.43;;
31004;SDS011;17676;52.254;4.490;2024-03-17T05:48:33;8.00;;;7.20;;
31004;SDS011;17676;52.254;4.490;2024-03-17T05:51:03;8.32;;;7.53;;
31004;SDS011;17676;52.254;4.490;2024-03-17T05:53:29;10.07;;;7.32;;
31004;SDS011;17676;52.254;4.490;2024-03-17T05:56:03;10.45;;;8.23;;
31004;SDS011;17676;52.254;4.490;2024-03-17T05:58:29;10.98;;;8.07;;
31004;SDS011;17676;52.254;4.490;2024-03-17T06:00:56;12.38;;;8.57;;
31004;SDS011;17676;52.254;4.490;2024-03-17T06:03:23;8.73;;;7.43;;
31004;SDS011;17676;52.254;4.490;2024-03-17T06:05:49;11.80;;;8.02;;
31004;SDS011;17676;52.254;4.490;2024-03-17T06:08:14;9.55;;;7.47;;
31004;SDS011;17676;52.254;4.490;2024-03-17T06:10:45;9.68;;;7.53;;
31004;SDS011;17676;52.254;4.490;2024-03-17T06:13:12;11.30;;;7.85;;
31004;SDS011;17676;52.254;4.490;2024-03-17T06:15:40;9.75;;;7.55;;
31004;SDS011;17676;52.254;4.490;2024-03-17T06:18:06;10.95;;;8.00;;
31004;SDS011;17676;52.254;4.490;2024-03-17T06:20:39;10.43;;;7.47;;
31004;SDS011;17676;52.254;4.490;2024-03-17T06:23:07;9.85;;;7.28;;
31004;SDS011;17676;52.254;4.490;2024-03-17T06:25:37;16.95;;;13.27;;
31004;SDS011;17676;52.254;4.490;2024-03-17T06:28:07;13.82;;;10.32;;
31004;SDS011;17676;52.254;4.490;2024-03-17T06:30:35;10.13;;;8.70;;
31004;SDS011;17676;52.254;4.490;2024-03-17T06:33:02;10.25;;;7.18;;
31004;SDS011;17676;52.254;4.490;2024-03-17T06:35:28;9.80;;;7.35;;
31004;SDS011;17676;52.254;4.490;2024-03-17T06:37:58;9.13;;;7.18;;
31004;SDS011;17676;52.254;4.490;2024-03-17T06:40:25;9.07;;;7.70;;
31004;SDS011;17676;52.254;4.490;2024-03-17T06:42:50;8.88;;;7.90;;
31004;SDS011;17676;52.254;4.490;2024-03-17T06:45:17;9.93;;;6.88;;
31004;SDS011;17676;52.254;4.490;2024-03-17T06:47:46;8.35;;;7.35;;
31004;SDS011;17676;52.254;4.490;2024-03-17T06:50:12;7.95;;;6.53;;
31004;SDS011;17676;52.254;4.490;2024-03-17T06:52:38;7.85;;;7.18;;
31004;SDS011;17676;52.254;4.490;2024-03-17T06:55:04;9.63;;;7.20;;
31004;SDS011;17676;52.254;4.490;2024-03-17T06:57:32;9.93;;;7.78;;
31004;SDS011;17676;52.254;4.490;2024-03-17T06:59:59;9.10;;;6.97;;
31004;SDS011;17676;52.254;4.490;2024-03-17T07:02:25;8.27;;;7.43;;
31004;SDS011;17676;52.254;4.490;2024-03-17T07:04:51;7.65;;;6.82;;
31004;SDS011;17676;52.254;4.490;2024-03-17T07:07:16;8.10;;;7.00;;
31004;SDS011;17676;52.254;4.490;2024-03-17T07:09:42;10.05;;;7.90;;
31004;SDS011;17676;52.254;4.490;2024-03-17T07:12:08;10.52;;;7.47;;
31004;SDS011;17676;52.254;4.490;2024-03-17T07:14:36;8.65;;;7.75;;
31004;SDS011;17676;52.254;4.490;2024-03-17T07:17:02;10.88;;;7.82;;
31004;SDS011;17676;52.254;4.490;2024-03-17T07:19:28;8.68;;;7.78;;
31004;SDS011;17676;52.254;4.490;2024-03-17T07:21:56;7.55;;;6.78;;
31004;SDS011;17676;52.254;4.490;2024-03-17T07:24:22;7.90;;;7.18;;
31004;SDS011;17676;52.254;4.490;2024-03-17T07:26:48;8.63;;;7.28;;
31004;SDS011;17676;52.254;4.490;2024-03-17T07:29:15;8.65;;;7.85;;
31004;SDS011;17676;52.254;4.490;2024-03-17T07:31:41;8.38;;;7.60;;
31004;SDS011;17676;52.254;4.490;2024-03-17T07:34:07;8.90;;;7.97;;
31004;SDS011;17676;52.254;4.490;2024-03-17T07:36:33;10.68;;;7.82;;
31004;SDS011;17676;52.254;4.490;2024-03-17T07:38:59;9.93;;;7.53;;
31004;SDS011;17676;52.254;4.490;2024-03-17T07:41:25;8.82;;;7.88;;
31004;SDS011;17676;52.254;4.490;2024-03-17T07:43:51;7.90;;;7.10;;
31004;SDS011;17676;52.254;4.490;2024-03-17T07:46:16;10.65;;;8.07;;
31004;SDS011;17676;52.254;4.490;2024-03-17T07:48:43;8.68;;;7.88;;
31004;SDS011;17676;52.254;4.490;2024-03-17T07:51:13;8.73;;;7.82;;
31004;SDS011;17676;52.254;4.490;2024-03-17T07:53:40;8.00;;;7.28;;
31004;SDS011;17676;52.254;4.490;2024-03-17T07:56:07;8.73;;;7.93;;
31004;SDS011;17676;52.254;4.490;2024-03-17T07:58:35;8.98;;;8.02;;
31004;SDS011;17676;52.254;4.490;2024-03-17T08:01:06;9.75;;;8.13;;
31004;SDS011;17676;52.254;4.490;2024-03-17T08:03:36;9.25;;;8.15;;
31004;SDS011;17676;52.254;4.490;2024-03-17T08:06:03;9.38;;;7.75;;
31004;SDS011;17676;52.254;4.490;2024-03-17T08:08:31;9.35;;;7.60;;
31004;SDS011;17676;52.254;4.490;2024-03-17T08:10:57;10.30;;;7.80;;
31004;SDS011;17676;52.254;4.490;2024-03-17T08:13:23;9.95;;;7.88;;
31004;SDS011;17676;52.254;4.490;2024-03-17T08:16:02;8.75;;;7.95;;
31004;SDS011;17676;52.254;4.490;2024-03-17T08:18:31;10.40;;;7.30;;
31004;SDS011;17676;52.254;4.490;2024-03-17T08:20:59;8.68;;;7.72;;
31004;SDS011;17676;52.254;4.490;2024-03-17T08:23:25;9.23;;;8.18;;
31004;SDS011;17676;52.254;4.490;2024-03-17T08:25:52;8.55;;;7.70;;
31004;SDS011;17676;52.254;4.490;2024-03-17T08:28:19;11.60;;;8.52;;
31004;SDS011;17676;52.254;4.490;2024-03-17T08:30:56;9.93;;;8.02;;
31004;SDS011;17676;52.254;4.490;2024-03-17T08:33:23;10.02;;;7.95;;
31004;SDS011;17676;52.254;4.490;2024-03-17T08:36:00;10.52;;;8.20;;
31004;SDS011;17676;52.254;4.490;2024-03-17T08:38:33;10.15;;;7.75;;
31004;SDS011;17676;52.254;4.490;2024-03-17T08:41:03;8.73;;;7.40;;
31004;SDS011;17676;52.254;4.490;2024-03-17T08:43:34;11.98;;;8.43;;
31004;SDS011;17676;52.254;4.490;2024-03-17T08:46:01;10.50;;;8.23;;
31004;SDS011;17676;52.254;4.490;2024-03-17T08:48:30;9.63;;;7.93;;
31004;SDS011;17676;52.254;4.490;2024-03-17T08:50:58;9.48;;;8.43;;
31004;SDS011;17676;52.254;4.490;2024-03-17T08:53:24;8.43;;;7.63;;
31004;SDS011;17676;52.254;4.490;2024-03-17T08:55:52;10.65;;;8.57;;
31004;SDS011;17676;52.254;4.490;2024-03-17T08:58:18;9.00;;;7.30;;
31004;SDS011;17676;52.254;4.490;2024-03-17T09:00:44;8.75;;;7.93;;
31004;SDS011;17676;52.254;4.490;2024-03-17T09:03:10;8.25;;;7.45;;
31004;SDS011;17676;52.254;4.490;2024-03-17T09:05:37;10.52;;;8.40;;
31004;SDS011;17676;52.254;4.490;2024-03-17T09:08:05;10.27;;;8.05;;
31004;SDS011;17676;52.254;4.490;2024-03-17T09:10:40;10.10;;;8.27;;
31004;SDS011;17676;52.254;4.490;2024-03-17T09:13:06;9.07;;;8.25;;
31004;SDS011;17676;52.254;4.490;2024-03-17T09:15:32;9.00;;;8.18;;
31004;SDS011;17676;52.254;4.490;2024-03-17T09:17:58;10.38;;;7.70;;
31004;SDS011;17676;52.254;4.490;2024-03-17T09:20:24;8.95;;;8.10;;
31004;SDS011;17676;52.254;4.490;2024-03-17T09:22:49;9.43;;;7.72;;
31004;SDS011;17676;52.254;4.490;2024-03-17T09:25:15;7.57;;;6.88;;
31004;SDS011;17676;52.254;4.490;2024-03-17T09:27:41;7.93;;;7.03;;
31004;SDS011;17676;52.254;4.490;2024-03-17T09:30:07;9.18;;;7.03;;
31004;SDS011;17676;52.254;4.490;2024-03-17T09:32:35;7.90;;;6.15;;
31004;SDS011;17676;52.254;4.490;2024-03-17T09:35:01;7.47;;;6.32;;
31004;SDS011;17676;52.254;4.490;2024-03-17T09:37:28;9.88;;;7.10;;
31004;SDS011;17676;52.254;4.490;2024-03-17T09:39:56;8.63;;;6.57;;
31004;SDS011;17676;52.254;4.490;2024-03-17T09:42:31;7.97;;;6.05;;
31004;SDS011;17676;52.254;4.490;2024-03-17T09:44:57;8.38;;;6.63;;
31004;SDS011;17676;52.254;4.490;2024-03-17T09:47:24;7.82;;;6.28;;
31004;SDS011;17676;52.254;4.490;2024-03-17T09:49:51;7.30;;;6.57;;
31004;SDS011;17676;52.254;4.490;2024-03-17T09:52:21;7.80;;;7.05;;
31004;SDS011;17676;52.254;4.490;2024-03-17T09:57:26;7.45;;;6.68;;
31004;SDS011;17676;52.254;4.490;2024-03-17T09:59:54;7.15;;;6.45;;
31004;SDS011;17676;52.254;4.490;2024-03-17T10:02:20;7.32;;;6.35;;
31004;SDS011;17676;52.254;4.490;2024-03-17T10:04:47;8.20;;;6.38;;
31004;SDS011;17676;52.254;4.490;2024-03-17T10:07:13;8.05;;;7.25;;
31004;SDS011;17676;52.254;4.490;2024-03-17T10:09:43;7.13;;;6.47;;
31004;SDS011;17676;52.254;4.490;2024-03-17T10:12:25;7.43;;;6.63;;
31004;SDS011;17676;52.254;4.490;2024-03-17T10:14:58;7.03;;;6.38;;
31004;SDS011;17676;52.254;4.490;2024-03-17T10:17:31;7.50;;;6.18;;
31004;SDS011;17676;52.254;4.490;2024-03-17T10:23:02;6.97;;;6.38;;
31004;SDS011;17676;52.254;4.490;2024-03-17T10:25:33;8.00;;;7.20;;
31004;SDS011;17676;52.254;4.490;2024-03-17T10:28:00;8.07;;;7.35;;
31004;SDS011;17676;52.254;4.490;2024-03-17T10:30:26;7.80;;;6.88;;
31004;SDS011;17676;52.254;4.490;2024-03-17T10:33:00;10.70;;;7.20;;
31004;SDS011;17676;52.254;4.490;2024-03-17T10:37:57;9.90;;;7.05;;
31004;SDS011;17676;52.254;4.490;2024-03-17T10:40:25;7.25;;;6.63;;
31004;SDS011;17676;52.254;4.490;2024-03-17T10:42:51;7.50;;;6.60;;
31004;SDS011;17676;52.254;4.490;2024-03-17T10:45:17;7.68;;;6.80;;
31004;SDS011;17676;52.254;4.490;2024-03-17T10:47:45;9.82;;;6.85;;
31004;SDS011;17676;52.254;4.490;2024-03-17T10:50:18;7.25;;;6.55;;
31004;SDS011;17676;52.254;4.490;2024-03-17T10:52:46;7.47;;;6.63;;
31004;SDS011;17676;52.254;4.490;2024-03-17T10:55:20;8.50;;;6.60;;
31004;SDS011;17676;52.254;4.490;2024-03-17T10:57:53;7.40;;;6.28;;
31004;SDS011;17676;52.254;4.490;2024-03-17T11:00:23;7.38;;;6.68;;
31004;SDS011;17676;52.254;4.490;2024-03-17T11:02:50;7.30;;;6.60;;
31004;SDS011;17676;52.254;4.490;2024-03-17T11:05:21;7.25;;;6.55;;
31004;SDS011;17676;52.254;4.490;2024-03-17T11:07:49;7.63;;;6.78;;
31004;SDS011;17676;52.254;4.490;2024-03-17T11:10:27;7.47;;;6.78;;
31004;SDS011;17676;52.254;4.490;2024-03-17T11:12:54;8.15;;;6.93;;
31004;SDS011;17676;52.254;4.490;2024-03-17T11:20:39;6.68;;;6.03;;
31004;SDS011;17676;52.254;4.490;2024-03-17T11:23:07;7.63;;;6.80;;
31004;SDS011;17676;52.254;4.490;2024-03-17T11:25:36;8.45;;;7.65;;
31004;SDS011;17676;52.254;4.490;2024-03-17T11:28:03;7.30;;;6.70;;
31004;SDS011;17676;52.254;4.490;2024-03-17T11:33:52;7.88;;;6.70;;
31004;SDS011;17676;52.254;4.490;2024-03-17T11:38:56;8.25;;;7.28;;
31004;SDS011;17676;52.254;4.490;2024-03-17T11:44:16;9.13;;;7.32;;
31004;SDS011;17676;52.254;4.490;2024-03-17T11:46:55;8.98;;;7.88;;
31004;SDS011;17676;52.254;4.490;2024-03-17T11:49:24;9.13;;;8.23;;
31004;SDS011;17676;52.254;4.490;2024-03-17T11:51:53;7.78;;;7.00;;
31004;SDS011;17676;52.254;4.490;2024-03-17T11:54:22;10.50;;;7.82;;
31004;SDS011;17676;52.254;4.490;2024-03-17T11:56:54;7.90;;;7.03;;
31004;SDS011;17676;52.254;4.490;2024-03-17T11:59:22;8.18;;;7.18;;
31004;SDS011;17676;52.254;4.490;2024-03-17T12:01:51;8.68;;;7.22;;
31004;SDS011;17676;52.254;4.490;2024-03-17T12:04:18;10.02;;;7.70;;
31004;SDS011;17676;52.254;4.490;2024-03-17T12:09:27;9.98;;;7.93;;
31004;SDS011;17676;52.254;4.490;2024-03-17T12:14:28;7.70;;;6.82;;
31004;SDS011;17676;52.254;4.490;2024-03-17T12:19:20;9.98;;;7.20;;
31004;SDS011;17676;52.254;4.490;2024-03-17T12:22:05;8.20;;;6.78;;
31004;SDS011;17676;52.254;4.490;2024-03-17T12:24:33;9.60;;;7.10;;
31004;SDS011;17676;52.254;4.490;2024-03-17T12:27:00;9.38;;;6.82;;
31004;SDS011;17676;52.254;4.490;2024-03-17T12:32:16;7.25;;;6.45;;
31004;SDS011;17676;52.254;4.490;2024-03-17T12:34:44;10.55;;;6.93;;
31004;SDS011;17676;52.254;4.490;2024-03-17T12:37:21;7.78;;;6.88;;
31004;SDS011;17676;52.254;4.490;2024-03-17T12:39:48;8.35;;;6.15;;
31004;SDS011;17676;52.254;4.490;2024-03-17T12:44:55;7.32;;;6.55;;
31004;SDS011;17676;52.254;4.490;2024-03-17T12:47:22;10.20;;;6.18;;
31004;SDS011;17676;52.254;4.490;2024-03-17T12:49:50;7.10;;;5.95;;
31004;SDS011;17676;52.254;4.490;2024-03-17T12:52:18;8.15;;;6.35;;
31004;SDS011;17676;52.254;4.490;2024-03-17T12:55:04;10.52;;;6.45;;
31004;SDS011;17676;52.254;4.490;2024-03-17T13:00:49;10.18;;;6.90;;
31004;SDS011;17676;52.254;4.490;2024-03-17T13:03:26;8.63;;;6.78;;
31004;SDS011;17676;52.254;4.490;2024-03-17T13:05:54;11.90;;;6.85;;
31004;SDS011;17676;52.254;4.490;2024-03-17T13:08:20;7.72;;;6.68;;
31004;SDS011;17676;52.254;4.490;2024-03-17T13:10:46;7.57;;;6.65;;
31004;SDS011;17676;52.254;4.490;2024-03-17T13:13:12;9.88;;;6.38;;
31004;SDS011;17676;52.254;4.490;2024-03-17T13:15:41;7.43;;;5.28;;
31004;SDS011;17676;52.254;4.490;2024-03-17T13:18:08;7.60;;;5.70;;
31004;SDS011;17676;52.254;4.490;2024-03-17T13:20:34;8.35;;;5.85;;
31004;SDS011;17676;52.254;4.490;2024-03-17T13:23:00;10.15;;;6.05;;
31004;SDS011;17676;52.254;4.490;2024-03-17T13:25:28;7.55;;;5.68;;
31004;SDS011;17676;52.254;4.490;2024-03-17T13:28:02;7.32;;;5.57;;
31004;SDS011;17676;52.254;4.490;2024-03-17T13:30:29;7.88;;;5.03;;
31004;SDS011;17676;52.254;4.490;2024-03-17T13:32:56;8.88;;;5.18;;
31004;SDS011;17676;52.254;4.490;2024-03-17T13:35:26;8.85;;;5.38;;
31004;SDS011;17676;52.254;4.490;2024-03-17T13:37:56;6.93;;;4.38;;
31004;SDS011;17676;52.254;4.490;2024-03-17T13:40:27;5.80;;;4.57;;
31004;SDS011;17676;52.254;4.490;2024-03-17T13:42:54;6.50;;;4.32;;
31004;SDS011;17676;52.254;4.490;2024-03-17T13:45:22;6.93;;;3.95;;
31004;SDS011;17676;52.254;4.490;2024-03-17T13:47:50;12.48;;;5.22;;
31004;SDS011;17676;52.254;4.490;2024-03-17T13:50:19;7.07;;;4.55;;
31004;SDS011;17676;52.254;4.490;2024-03-17T13:52:44;6.70;;;5.18;;
31004;SDS011;17676;52.254;4.490;2024-03-17T13:55:14;6.60;;;4.78;;
31004;SDS011;17676;52.254;4.490;2024-03-17T13:57:44;9.35;;;5.45;;
31004;SDS011;17676;52.254;4.490;2024-03-17T14:00:11;8.25;;;5.32;;
31004;SDS011;17676;52.254;4.490;2024-03-17T14:02:44;6.47;;;4.80;;
31004;SDS011;17676;52.254;4.490;2024-03-17T14:05:14;5.85;;;4.50;;
31004;SDS011;17676;52.254;4.490;2024-03-17T14:07:41;8.52;;;4.80;;
31004;SDS011;17676;52.254;4.490;2024-03-17T14:10:07;10.20;;;4.35;;
31004;SDS011;17676;52.254;4.490;2024-03-17T14:12:35;8.00;;;4.10;;
31004;SDS011;17676;52.254;4.490;2024-03-17T14:15:03;5.60;;;3.90;;
31004;SDS011;17676;52.254;4.490;2024-03-17T14:17:36;7.63;;;4.30;;
31004;SDS011;17676;52.254;4.490;2024-03-17T14:20:06;7.35;;;3.85;;
31004;SDS011;17676;52.254;4.490;2024-03-17T14:22:36;7.18;;;3.55;;
31004;SDS011;17676;52.254;4.490;2024-03-17T14:25:02;9.77;;;3.72;;
31004;SDS011;17676;52.254;4.490;2024-03-17T14:27:28;9.05;;;3.90;;
31004;SDS011;17676;52.254;4.490;2024-03-17T14:29:54;7.28;;;3.40;;
31004;SDS011;17676;52.254;4.490;2024-03-17T14:32:19;7.35;;;3.38;;
31004;SDS011;17676;52.254;4.490;2024-03-17T14:34:46;7.88;;;3.60;;
31004;SDS011;17676;52.254;4.490;2024-03-17T14:37:12;8.85;;;3.97;;
31004;SDS011;17676;52.254;4.490;2024-03-17T14:39:39;6.53;;;3.67;;
31004;SDS011;17676;52.254;4.490;2024-03-17T14:42:05;11.32;;;4.43;;
31004;SDS011;17676;52.254;4.490;2024-03-17T14:44:33;8.68;;;3.80;;
31004;SDS011;17676;52.254;4.490;2024-03-17T14:47:00;8.48;;;4.57;;
31004;SDS011;17676;52.254;4.490;2024-03-17T14:49:26;6.20;;;4.15;;
31004;SDS011;17676;52.254;4.490;2024-03-17T14:51:52;9.15;;;4.40;;
31004;SDS011;17676;52.254;4.490;2024-03-17T14:54:18;5.65;;;3.70;;
31004;SDS011;17676;52.254;4.490;2024-03-17T14:56:43;7.28;;;3.83;;
31004;SDS011;17676;52.254;4.490;2024-03-17T14:59:09;7.93;;;4.03;;
31004;SDS011;17676;52.254;4.490;2024-03-17T15:01:37;8.48;;;3.92;;
31004;SDS011;17676;52.254;4.490;2024-03-17T15:04:03;9.15;;;4.05;;
31004;SDS011;17676;52.254;4.490;2024-03-17T15:06:28;8.90;;;3.70;;
31004;SDS011;17676;52.254;4.490;2024-03-17T15:08:54;6.32;;;3.63;;
31004;SDS011;17676;52.254;4.490;2024-03-17T15:11:20;6.95;;;3.95;;
31004;SDS011;17676;52.254;4.490;2024-03-17T15:13:46;7.05;;;4.63;;
31004;SDS011;17676;52.254;4.490;2024-03-17T15:16:12;7.90;;;4.45;;
31004;SDS011;17676;52.254;4.490;2024-03-17T15:18:40;7.80;;;4.68;;
31004;SDS011;17676;52.254;4.490;2024-03-17T15:21:06;8.60;;;4.65;;
31004;SDS011;17676;52.254;4.490;2024-03-17T15:23:32;6.90;;;5.05;;
31004;SDS011;17676;52.254;4.490;2024-03-17T15:25:59;7.70;;;5.18;;